Time;durP1;ratioP1;P1;durP2;ratioP2;P2;SDS_P1;SDS_P2;PMS_P1;PMS_P2;Temp;Humidity;BMP_temperature;BMP_pressure;BME280_temperature;BME280_humidity;BME280_pressure;Samples;Min_cycle;Max_cycle;Signal;HPM_P1;HPM_P2
2023/05/24 00:01:24;;;;;;;5.63;2.00;;;16.60;81.20;;;;;;6218511;23;20012;-81
2023/05/24 00:03:53;;;;;;;5.43;1.92;;;16.60;81.20;;;;;;6220596;23;20342;-80
2023/05/24 00:06:19;;;;;;;4.88;1.73;;;16.60;81.10;;;;;;6247826;23;20028;-80
2023/05/24 00:08:45;;;;;;;6.35;1.85;;;16.60;81.10;;;;;;6219992;23;20463;-79
2023/05/24 00:11:11;;;;;;;5.32;1.80;;;16.60;81.00;;;;;;6219442;23;20004;-82
2023/05/24 00:13:36;;;;;;;5.07;1.70;;;16.60;81.00;;;;;;6246413;23;20033;-80
2023/05/24 00:16:02;;;;;;;5.82;2.15;;;16.60;81.10;;;;;;6218631;23;20050;-80
2023/05/24 00:18:30;;;;;;;4.93;1.90;;;16.50;81.00;;;;;;6219318;23;20121;-80
2023/05/24 00:20:57;;;;;;;5.68;2.00;;;16.50;81.10;;;;;;6219648;23;20054;-81
2023/05/24 00:23:23;;;;;;;5.40;1.83;;;16.50;81.20;;;;;;6218822;23;20004;-80
2023/05/24 00:25:48;;;;;;;3.90;1.65;;;16.50;81.30;;;;;;6218834;23;20008;-79
2023/05/24 00:28:14;;;;;;;6.70;1.77;;;16.50;81.30;;;;;;6218484;23;20099;-81
2023/05/24 00:30:40;;;;;;;5.43;1.70;;;16.50;81.40;;;;;;6218494;23;20008;-81
2023/05/24 00:33:05;;;;;;;6.18;2.08;;;16.50;81.50;;;;;;6219494;23;20008;-80
2023/05/24 00:35:31;;;;;;;5.53;2.10;;;16.50;81.50;;;;;;6219629;23;20335;-80
2023/05/24 00:37:56;;;;;;;5.70;1.80;;;16.50;81.50;;;;;;6218988;23;20077;-81
2023/05/24 00:40:21;;;;;;;5.80;2.03;;;16.40;81.40;;;;;;6218683;23;20008;-81
2023/05/24 00:42:47;;;;;;;7.07;2.10;;;16.40;81.40;;;;;;6218443;23;20039;-80
2023/05/24 00:45:13;;;;;;;5.00;1.67;;;16.40;81.40;;;;;;6222501;23;20067;-82
2023/05/24 00:47:39;;;;;;;4.93;1.80;;;16.40;81.50;;;;;;6256979;23;20004;-82
2023/05/24 00:50:07;;;;;;;6.15;1.80;;;16.40;81.40;;;;;;6229385;23;20012;-82
2023/05/24 00:52:32;;;;;;;4.85;1.55;;;16.40;81.50;;;;;;6228537;23;20011;-82
2023/05/24 00:54:58;;;;;;;5.30;1.73;;;16.40;81.40;;;;;;6231036;23;20008;-82
2023/05/24 00:57:24;;;;;;;4.88;1.80;;;16.40;81.40;;;;;;6231337;23;20046;-82
2023/05/24 00:59:50;;;;;;;5.22;1.75;;;16.30;81.30;;;;;;6230780;23;20457;-81
2023/05/24 01:02:17;;;;;;;5.75;1.50;;;16.40;81.30;;;;;;6230323;23;20005;-80
2023/05/24 01:04:43;;;;;;;6.50;2.08;;;16.40;81.10;;;;;;6230176;23;20004;-83
2023/05/24 01:07:22;;;;;;;4.68;1.60;;;16.40;81.20;;;;;;6229830;23;20032;-82
2023/05/24 01:09:50;;;;;;;5.43;1.70;;;16.40;81.30;;;;;;6228902;23;20437;-81
2023/05/24 01:12:35;;;;;;;5.32;1.92;;;16.40;81.30;;;;;;6228272;23;20083;-82
2023/05/24 01:15:22;;;;;;;4.53;1.77;;;16.40;81.30;;;;;;6228228;23;20519;-82
2023/05/24 01:18:01;;;;;;;5.47;1.73;;;16.40;81.20;;;;;;6228238;23;20087;-82
2023/05/24 01:20:30;;;;;;;5.88;2.05;;;16.40;81.20;;;;;;6219984;23;20084;-81
2023/05/24 01:23:17;;;;;;;7.50;2.00;;;16.40;81.00;;;;;;6225344;23;20004;-81
2023/05/24 01:25:48;;;;;;;6.68;2.10;;;16.40;81.10;;;;;;6226627;23;20046;-81
2023/05/24 01:28:16;;;;;;;5.30;1.75;;;16.40;81.20;;;;;;6225988;23;20004;-81
2023/05/24 01:30:42;;;;;;;4.80;1.60;;;16.40;81.10;;;;;;6226934;23;20008;-81
2023/05/24 01:33:07;;;;;;;6.30;1.90;;;16.40;81.00;;;;;;6253951;23;20640;-81
2023/05/24 01:35:38;;;;;;;5.30;1.70;;;16.40;80.80;;;;;;6226432;23;20000;-82
2023/05/24 01:38:05;;;;;;;6.32;2.13;;;16.50;80.80;;;;;;6225412;23;20541;-83
2023/05/24 01:40:30;;;;;;;6.35;2.10;;;16.50;80.90;;;;;;6231367;23;20074;-82
2023/05/24 01:43:10;;;;;;;4.90;1.73;;;16.50;80.90;;;;;;6226558;23;20509;-81
2023/05/24 01:45:57;;;;;;;5.90;2.00;;;16.50;80.90;;;;;;6221920;23;20016;-82
2023/05/24 01:48:53;;;;;;;5.43;1.70;;;16.50;81.30;;;;;;6231758;23;20355;-82
2023/05/24 01:51:22;;;;;;;5.32;1.75;;;16.50;80.80;;;;;;6255043;23;20004;-81
2023/05/24 01:53:49;;;;;;;6.28;2.00;;;16.50;80.70;;;;;;6256397;23;19997;-81
2023/05/24 01:56:18;;;;;;;4.97;1.60;;;16.50;80.50;;;;;;6230770;23;20000;-82
2023/05/24 01:58:45;;;;;;;5.45;1.70;;;16.50;80.60;;;;;;6229573;23;20027;-83
2023/05/24 02:01:12;;;;;;;5.40;1.85;;;16.40;80.50;;;;;;6229532;23;20000;-81
2023/05/24 02:03:38;;;;;;;4.68;1.80;;;16.50;80.60;;;;;;6228703;23;20004;-81
2023/05/24 02:06:04;;;;;;;5.38;1.95;;;16.40;80.70;;;;;;6252946;23;20007;-80
2023/05/24 02:08:29;;;;;;;5.15;1.77;;;16.40;80.80;;;;;;6225755;23;20027;-81
2023/05/24 02:10:55;;;;;;;4.97;1.90;;;16.40;80.90;;;;;;6226335;23;20506;-81
2023/05/24 02:13:20;;;;;;;4.72;1.67;;;16.40;81.00;;;;;;6225691;23;20062;-81
2023/05/24 02:15:46;;;;;;;5.28;2.03;;;16.40;81.00;;;;;;6219458;23;20457;-81
2023/05/24 02:18:12;;;;;;;4.03;1.60;;;16.30;81.00;;;;;;6224650;23;20004;-81
2023/05/24 02:20:38;;;;;;;4.82;1.60;;;16.30;81.10;;;;;;6225785;23;20073;-82
2023/05/24 02:23:04;;;;;;;5.95;1.90;;;16.40;81.10;;;;;;6225143;23;20004;-81
2023/05/24 02:25:30;;;;;;;5.35;1.80;;;16.40;81.10;;;;;;6225294;23;20068;-81
2023/05/24 02:27:57;;;;;;;4.57;1.63;;;16.30;81.10;;;;;;6247373;23;20004;-80
2023/05/24 02:30:23;;;;;;;5.38;1.67;;;16.30;81.00;;;;;;6246829;23;20008;-81
2023/05/24 02:32:49;;;;;;;6.22;2.10;;;16.30;81.00;;;;;;6244234;23;20454;-81
2023/05/24 02:35:15;;;;;;;6.22;1.80;;;16.30;81.00;;;;;;6222853;23;20004;-81
2023/05/24 02:37:40;;;;;;;5.72;1.88;;;16.40;81.20;;;;;;6224494;23;20036;-81
2023/05/24 02:40:06;;;;;;;6.53;1.88;;;16.30;81.00;;;;;;6224599;23;20004;-82
2023/05/24 02:42:32;;;;;;;4.78;1.90;;;16.30;81.10;;;;;;6223711;23;20008;-82
2023/05/24 02:44:57;;;;;;;5.55;1.90;;;16.30;81.10;;;;;;6223574;23;20046;-81
2023/05/24 02:47:25;;;;;;;5.70;2.30;;;16.30;81.00;;;;;;6223613;23;20005;-81
2023/05/24 02:49:51;;;;;;;6.10;1.88;;;16.30;81.10;;;;;;6219550;23;20054;-81
2023/05/24 02:52:20;;;;;;;5.70;2.10;;;16.30;81.10;;;;;;6219531;23;20015;-81
2023/05/24 02:54:46;;;;;;;6.03;1.95;;;16.30;81.00;;;;;;6220117;23;20338;-81
2023/05/24 02:57:11;;;;;;;6.85;2.10;;;16.30;80.90;;;;;;6222606;23;20000;-81
2023/05/24 02:59:37;;;;;;;6.00;2.20;;;16.30;80.90;;;;;;6249881;23;20037;-80
2023/05/24 03:02:02;;;;;;;4.72;1.63;;;16.30;80.90;;;;;;6222641;23;20000;-81
2023/05/24 03:04:28;;;;;;;4.63;1.77;;;16.30;80.90;;;;;;6223694;23;20012;-80
2023/05/24 03:06:53;;;;;;;5.82;1.88;;;16.30;80.90;;;;;;6223494;23;20004;-80
2023/05/24 03:09:19;;;;;;;6.03;1.98;;;16.30;80.90;;;;;;6223338;23;20016;-80
2023/05/24 03:11:44;;;;;;;5.68;1.75;;;16.30;80.90;;;;;;6221818;23;20442;-79
2023/05/24 03:14:10;;;;;;;5.13;1.70;;;16.30;80.80;;;;;;6249530;23;20003;-82
2023/05/24 03:16:36;;;;;;;5.90;1.63;;;16.30;80.80;;;;;;6249637;23;20026;-80
2023/05/24 03:19:02;;;;;;;5.45;1.75;;;16.40;80.60;;;;;;6221279;23;20050;-81
2023/05/24 03:21:28;;;;;;;5.18;2.10;;;16.40;80.60;;;;;;6248746;23;20000;-81
2023/05/24 03:23:54;;;;;;;6.07;2.00;;;16.40;80.50;;;;;;6245601;23;20008;-80
2023/05/24 03:26:20;;;;;;;5.78;2.08;;;16.40;80.60;;;;;;6212609;23;20000;-80
2023/05/24 03:28:46;;;;;;;4.88;1.75;;;16.40;80.50;;;;;;6216469;23;20015;-80
2023/05/24 03:31:12;;;;;;;5.65;1.88;;;16.40;80.50;;;;;;6215787;23;20083;-78
2023/05/24 03:33:37;;;;;;;5.93;1.98;;;16.50;80.50;;;;;;6215805;23;20009;-79
2023/05/24 03:36:04;;;;;;;6.70;2.25;;;16.50;80.40;;;;;;6216923;23;20004;-81
2023/05/24 03:38:30;;;;;;;5.07;1.90;;;16.50;80.30;;;;;;6217681;23;20004;-78
2023/05/24 03:40:56;;;;;;;7.85;2.28;;;16.40;80.30;;;;;;6216823;23;20016;-79
2023/05/24 03:43:21;;;;;;;7.50;2.25;;;16.40;80.30;;;;;;6218828;23;20008;-79
2023/05/24 03:45:47;;;;;;;7.32;2.15;;;16.30;80.20;;;;;;6217200;23;20485;-78
2023/05/24 03:48:12;;;;;;;6.05;1.80;;;16.40;80.20;;;;;;6215747;23;20106;-82
2023/05/24 03:50:38;;;;;;;5.97;2.00;;;16.40;80.40;;;;;;6217559;23;20123;-80
2023/05/24 03:53:03;;;;;;;7.70;2.58;;;16.40;80.50;;;;;;6217259;23;20011;-79
2023/05/24 03:55:29;;;;;;;5.95;2.10;;;16.30;80.50;;;;;;6217633;23;20030;-79
2023/05/24 03:57:55;;;;;;;6.32;2.38;;;16.40;80.60;;;;;;6218566;23;20028;-77
2023/05/24 04:00:20;;;;;;;5.10;1.83;;;16.30;80.70;;;;;;6217175;23;20095;-79
2023/05/24 04:02:46;;;;;;;9.25;2.88;;;16.30;80.70;;;;;;6215834;23;20058;-79
2023/05/24 04:05:12;;;;;;;5.38;1.92;;;16.30;80.80;;;;;;6215829;23;20012;-78
2023/05/24 04:07:38;;;;;;;6.15;2.00;;;16.30;80.80;;;;;;6215523;23;20090;-79
2023/05/24 04:10:05;;;;;;;5.78;1.92;;;16.30;80.80;;;;;;6216640;23;20097;-79
2023/05/24 04:12:31;;;;;;;7.93;2.38;;;16.30;80.80;;;;;;6216525;23;20012;-78
2023/05/24 04:14:58;;;;;;;5.53;2.03;;;16.30;80.70;;;;;;6216540;23;20325;-80
2023/05/24 04:17:23;;;;;;;6.15;1.90;;;16.30;80.80;;;;;;6215851;23;20008;-80
2023/05/24 04:19:50;;;;;;;5.75;2.17;;;16.30;80.80;;;;;;6217848;23;20083;-80
2023/05/24 04:22:17;;;;;;;5.93;1.80;;;16.30;80.80;;;;;;6218492;23;20008;-78
2023/05/24 04:24:43;;;;;;;6.45;2.00;;;16.20;80.60;;;;;;6217870;23;20004;-78
2023/05/24 04:27:09;;;;;;;7.05;2.25;;;16.20;80.60;;;;;;6222077;23;20012;-82
2023/05/24 04:29:38;;;;;;;5.95;2.03;;;16.20;80.70;;;;;;6227177;23;20012;-80
2023/05/24 04:32:05;;;;;;;6.43;2.28;;;16.20;80.60;;;;;;6228069;23;20008;-80
2023/05/24 04:34:34;;;;;;;6.60;2.00;;;16.10;80.50;;;;;;6228184;23;20063;-79
2023/05/24 04:37:00;;;;;;;4.95;1.80;;;16.20;80.60;;;;;;6227917;23;20005;-80
2023/05/24 04:39:29;;;;;;;6.72;1.98;;;16.30;80.60;;;;;;6227529;23;20003;-80
2023/05/24 04:41:56;;;;;;;5.32;1.88;;;16.30;80.60;;;;;;6225018;23;20012;-79
2023/05/24 04:44:23;;;;;;;7.30;2.35;;;16.20;80.60;;;;;;6226781;23;20031;-82
2023/05/24 04:46:49;;;;;;;6.55;2.50;;;16.30;80.60;;;;;;6228376;23;20000;-79
2023/05/24 04:49:18;;;;;;;5.68;1.90;;;16.20;80.50;;;;;;6227284;23;20397;-80
2023/05/24 04:51:48;;;;;;;5.60;1.90;;;17.20;81.00;;;;;;6225741;23;20000;-79
2023/05/24 04:54:15;;;;;;;6.40;2.10;;;16.20;80.40;;;;;;6219368;23;20453;-81
2023/05/24 04:56:41;;;;;;;6.45;2.13;;;16.20;80.30;;;;;;6221875;23;20015;-82
2023/05/24 04:59:07;;;;;;;6.05;1.85;;;16.20;80.30;;;;;;6225306;23;20434;-79
2023/05/24 05:01:33;;;;;;;6.75;2.38;;;16.00;80.20;;;;;;6224765;23;20000;-82
2023/05/24 05:04:06;;;;;;;5.78;2.05;;;16.30;80.30;;;;;;6224147;23;20012;-80
2023/05/24 05:06:37;;;;;;;7.40;2.38;;;16.30;80.20;;;;;;6224518;23;20004;-79
2023/05/24 05:09:12;;;;;;;5.85;2.00;;;16.30;80.10;;;;;;6224086;23;20462;-79
2023/05/24 05:11:38;;;;;;;7.25;2.30;;;16.70;80.30;;;;;;6223995;23;20019;-78
2023/05/24 05:14:04;;;;;;;5.85;2.10;;;16.30;80.30;;;;;;6224267;23;20007;-80
2023/05/24 05:16:30;;;;;;;6.57;2.08;;;16.90;80.30;;;;;;6224022;23;20008;-80
2023/05/24 05:18:56;;;;;;;7.72;2.38;;;16.80;80.20;;;;;;6218980;23;20005;-80
2023/05/24 05:21:22;;;;;;;7.75;2.13;;;16.80;80.20;;;;;;6226379;23;20058;-79
2023/05/24 05:23:47;;;;;;;6.60;2.35;;;16.40;79.90;;;;;;6249227;23;20007;-78
2023/05/24 05:26:13;;;;;;;6.15;2.10;;;16.50;80.00;;;;;;6223664;23;20000;-80
2023/05/24 05:28:38;;;;;;;6.55;2.30;;;16.30;80.00;;;;;;6227158;23;20056;-79
2023/05/24 05:31:04;;;;;;;6.07;2.22;;;16.90;80.30;;;;;;6250671;23;19996;-81
2023/05/24 05:33:33;;;;;;;6.45;2.35;;;16.30;80.10;;;;;;6222639;23;20087;-80
2023/05/24 05:35:59;;;;;;;5.82;1.83;;;16.30;80.30;;;;;;6221797;23;20451;-81
2023/05/24 05:38:24;;;;;;;6.55;2.15;;;16.30;80.20;;;;;;6222492;23;20004;-79
2023/05/24 05:40:57;;;;;;;7.30;2.30;;;16.30;80.30;;;;;;6221053;23;20657;-78
2023/05/24 05:43:24;;;;;;;9.55;2.78;;;17.40;81.00;;;;;;6249077;23;20000;-82
2023/05/24 05:45:49;;;;;;;9.68;2.70;;;17.20;80.50;;;;;;6229779;23;20439;-81
2023/05/24 05:48:15;;;;;;;7.90;2.45;;;16.30;80.10;;;;;;6222457;23;20012;-77
2023/05/24 05:50:40;;;;;;;6.95;2.60;;;16.30;80.20;;;;;;6230786;23;20011;-79
2023/05/24 05:53:06;;;;;;;9.10;2.55;;;16.30;80.20;;;;;;6230028;23;20004;-81
2023/05/24 05:55:31;;;;;;;8.15;2.67;;;16.30;80.10;;;;;;6254017;23;19996;-80
2023/05/24 05:57:56;;;;;;;6.38;2.13;;;16.30;80.70;;;;;;6222144;23;19996;-82
2023/05/24 06:00:22;;;;;;;6.53;2.42;;;16.30;80.20;;;;;;6257276;23;19996;-82
2023/05/24 06:02:48;;;;;;;7.20;2.60;;;16.30;80.10;;;;;;6228732;23;20068;-80
2023/05/24 06:05:13;;;;;;;6.47;2.35;;;16.20;80.10;;;;;;6228921;23;20446;-80
2023/05/24 06:07:39;;;;;;;7.35;2.60;;;16.20;80.10;;;;;;6229111;23;20065;-80
2023/05/24 06:10:05;;;;;;;8.25;2.78;;;16.30;80.20;;;;;;6253788;23;20434;-81
2023/05/24 06:12:31;;;;;;;9.57;2.42;;;16.30;80.20;;;;;;6255166;23;20460;-82
2023/05/24 06:14:56;;;;;;;7.55;2.60;;;16.30;80.20;;;;;;6228102;23;19996;-79
2023/05/24 06:17:23;;;;;;;7.43;2.33;;;16.20;80.20;;;;;;6255343;23;20003;-81
2023/05/24 06:19:52;;;;;;;7.45;2.30;;;16.30;80.20;;;;;;6223205;23;20004;-81
2023/05/24 06:22:18;;;;;;;7.60;2.78;;;16.20;80.20;;;;;;6247482;23;20000;-81
2023/05/24 06:24:44;;;;;;;7.47;2.63;;;16.20;80.70;;;;;;6247424;23;20047;-80
2023/05/24 06:27:10;;;;;;;7.57;2.30;;;16.30;80.20;;;;;;6225624;23;20004;-80
2023/05/24 06:29:35;;;;;;;7.35;2.35;;;16.30;80.20;;;;;;6226615;23;20451;-80
2023/05/24 06:32:01;;;;;;;9.27;2.50;;;16.20;80.20;;;;;;6225145;23;20004;-80
2023/05/24 06:34:28;;;;;;;7.55;2.45;;;16.30;80.30;;;;;;6224427;23;20036;-80
2023/05/24 06:36:54;;;;;;;6.40;2.20;;;16.30;80.30;;;;;;6225223;23;19997;-80
2023/05/24 06:39:19;;;;;;;6.25;2.38;;;16.30;80.20;;;;;;6225592;23;20042;-78
2023/05/24 06:41:45;;;;;;;6.32;2.28;;;16.30;80.20;;;;;;6224715;23;20008;-81
2023/05/24 06:44:11;;;;;;;7.88;2.40;;;16.30;80.20;;;;;;6220654;23;20018;-80
2023/05/24 06:46:37;;;;;;;8.75;2.92;;;16.30;80.20;;;;;;6221126;23;20004;-80
2023/05/24 06:49:03;;;;;;;7.13;2.40;;;16.30;80.20;;;;;;6223827;23;20163;-82
2023/05/24 06:51:29;;;;;;;7.20;2.33;;;16.30;80.10;;;;;;6220333;23;20004;-80
2023/05/24 06:53:55;;;;;;;7.90;2.30;;;16.40;80.10;;;;;;6221017;23;19997;-80
2023/05/24 06:56:21;;;;;;;7.22;2.47;;;16.40;80.00;;;;;;6223816;23;20083;-79
2023/05/24 06:58:47;;;;;;;5.43;2.20;;;16.40;79.90;;;;;;6251986;23;19996;-80
2023/05/24 07:01:13;;;;;;;7.85;2.40;;;16.40;79.80;;;;;;6222377;23;20338;-81
2023/05/24 07:03:38;;;;;;;7.72;2.45;;;16.40;79.70;;;;;;6222877;23;20091;-79
2023/05/24 07:06:04;;;;;;;7.70;2.42;;;16.50;79.70;;;;;;6223651;23;20015;-81
2023/05/24 07:08:29;;;;;;;8.05;2.72;;;16.50;79.70;;;;;;6220239;23;20012;-80
2023/05/24 07:10:55;;;;;;;8.88;3.00;;;16.50;79.60;;;;;;6220175;23;20008;-79
2023/05/24 07:13:21;;;;;;;6.47;2.35;;;16.50;79.60;;;;;;6219282;23;20000;-80
2023/05/24 07:15:47;;;;;;;7.20;2.30;;;16.50;79.60;;;;;;6221533;23;20000;-81
2023/05/24 07:18:13;;;;;;;9.00;2.78;;;16.50;79.60;;;;;;6248012;23;20076;-80
2023/05/24 07:20:38;;;;;;;4.93;2.45;;;16.50;79.60;;;;;;6245772;23;20011;-80
2023/05/24 07:23:05;;;;;;;7.88;2.88;;;16.50;79.60;;;;;;6218879;23;20083;-80
2023/05/24 07:25:31;;;;;;;6.78;2.42;;;16.50;79.60;;;;;;6245047;23;20027;-80
2023/05/24 07:27:57;;;;;;;6.72;2.63;;;16.50;79.60;;;;;;6220312;23;20008;-80
2023/05/24 07:30:22;;;;;;;7.30;2.50;;;16.50;79.70;;;;;;6248126;23;20031;-81
2023/05/24 07:32:47;;;;;;;7.18;2.65;;;16.50;79.70;;;;;;6220938;23;20004;-80
2023/05/24 07:35:13;;;;;;;7.85;2.70;;;16.50;79.70;;;;;;6248483;23;20067;-80
2023/05/24 07:37:39;;;;;;;8.13;2.50;;;16.50;79.70;;;;;;6245906;23;20134;-80
2023/05/24 07:40:09;;;;;;;7.35;2.22;;;16.50;79.50;;;;;;6219011;23;20145;-80
2023/05/24 07:42:34;;;;;;;7.25;2.58;;;16.50;79.60;;;;;;6218702;23;20008;-81
2023/05/24 07:45:00;;;;;;;7.53;2.47;;;16.50;79.70;;;;;;6246131;23;20087;-78
2023/05/24 07:47:26;;;;;;;7.07;2.33;;;16.50;79.60;;;;;;6219150;23;20461;-80
2023/05/24 07:49:51;;;;;;;6.57;2.30;;;16.50;79.60;;;;;;6219415;23;20004;-80
2023/05/24 07:52:17;;;;;;;6.30;2.33;;;16.50;79.60;;;;;;6220080;23;20014;-80
2023/05/24 07:54:42;;;;;;;7.50;2.50;;;16.50;79.60;;;;;;6220104;23;20337;-80
2023/05/24 07:57:08;;;;;;;8.55;2.60;;;16.50;79.50;;;;;;6219210;23;20012;-79
2023/05/24 07:59:34;;;;;;;6.75;2.40;;;16.50;79.50;;;;;;6219260;23;20000;-80
2023/05/24 08:02:04;;;;;;;8.38;2.92;;;16.50;79.50;;;;;;6218682;23;20008;-80
2023/05/24 08:04:30;;;;;;;7.68;2.80;;;16.50;79.60;;;;;;6218781;23;20004;-79
2023/05/24 08:06:56;;;;;;;7.70;2.50;;;16.50;79.60;;;;;;6219111;23;20012;-80
2023/05/24 08:09:22;;;;;;;6.10;2.53;;;16.50;79.50;;;;;;6219515;23;20000;-80
2023/05/24 08:11:48;;;;;;;7.30;2.67;;;16.50;79.50;;;;;;6229823;23;20011;-83
2023/05/24 08:14:13;;;;;;;7.75;2.50;;;16.50;79.50;;;;;;6234085;23;19996;-82
2023/05/24 08:16:39;;;;;;;8.90;2.90;;;16.50;79.40;;;;;;6233668;23;20031;-82
2023/05/24 08:19:05;;;;;;;7.43;2.85;;;16.50;79.50;;;;;;6233409;23;20004;-81
2023/05/24 08:21:32;;;;;;;7.28;2.38;;;16.50;79.50;;;;;;6232010;23;20000;-82
2023/05/24 08:23:58;;;;;;;6.63;2.25;;;16.50;79.50;;;;;;6232640;23;20438;-80
2023/05/24 08:26:24;;;;;;;6.10;2.40;;;16.50;79.50;;;;;;6231621;23;20019;-80
2023/05/24 08:28:51;;;;;;;6.95;2.72;;;16.50;79.50;;;;;;6258895;23;20026;-80
2023/05/24 08:31:16;;;;;;;6.82;2.50;;;16.50;79.50;;;;;;6231499;23;20015;-81
2023/05/24 08:33:42;;;;;;;8.02;2.90;;;16.50;79.40;;;;;;6229229;23;20032;-80
2023/05/24 08:36:08;;;;;;;6.95;2.67;;;16.50;79.30;;;;;;6218352;23;20000;-82
2023/05/24 08:38:33;;;;;;;6.80;2.80;;;16.60;79.20;;;;;;6229538;23;20001;-81
2023/05/24 08:40:59;;;;;;;7.18;2.60;;;16.50;79.10;;;;;;6229178;23;20011;-79
2023/05/24 08:43:27;;;;;;;6.85;2.25;;;16.50;79.20;;;;;;6229517;23;20004;-80
2023/05/24 08:45:56;;;;;;;7.20;2.60;;;16.60;79.10;;;;;;6228879;23;20075;-82
2023/05/24 08:48:24;;;;;;;6.75;2.58;;;16.60;79.20;;;;;;6223480;23;20000;-80
2023/05/24 08:50:49;;;;;;;7.68;2.38;;;16.60;79.10;;;;;;6247440;23;20096;-78
2023/05/24 08:53:17;;;;;;;7.40;2.70;;;16.50;79.10;;;;;;6228171;23;20030;-80
2023/05/24 08:55:43;;;;;;;7.38;2.50;;;16.50;79.20;;;;;;6227432;23;20004;-80
2023/05/24 08:58:10;;;;;;;6.90;2.30;;;16.50;79.30;;;;;;6227098;23;20035;-81
2023/05/24 09:00:35;;;;;;;5.68;2.38;;;16.50;79.30;;;;;;6227118;23;19996;-80
2023/05/24 09:03:02;;;;;;;8.07;2.70;;;16.50;79.40;;;;;;6226240;23;20046;-80
2023/05/24 09:05:29;;;;;;;8.13;2.70;;;16.50;79.40;;;;;;6228213;23;20044;-82
2023/05/24 09:07:55;;;;;;;8.05;2.67;;;16.50;79.50;;;;;;6233979;23;20024;-82
2023/05/24 09:10:21;;;;;;;7.40;2.88;;;16.50;79.50;;;;;;6233905;23;20062;-82
2023/05/24 09:12:54;;;;;;;7.07;2.80;;;16.50;79.50;;;;;;6232367;23;20008;-82
2023/05/24 09:15:19;;;;;;;8.00;2.60;;;16.50;79.50;;;;;;6233839;23;20004;-81
2023/05/24 09:17:46;;;;;;;6.10;2.33;;;16.40;79.50;;;;;;6234722;23;20047;-81
2023/05/24 09:20:12;;;;;;;7.65;2.63;;;16.40;79.50;;;;;;6233970;23;20000;-82
2023/05/24 09:22:40;;;;;;;6.70;2.20;;;16.50;79.50;;;;;;6233161;23;20008;-82
2023/05/24 09:25:07;;;;;;;7.60;2.58;;;16.40;79.50;;;;;;6233468;23;20007;-80
2023/05/24 09:27:36;;;;;;;7.32;2.40;;;16.40;79.60;;;;;;6233048;23;20014;-80
2023/05/24 09:30:04;;;;;;;6.65;2.60;;;16.40;79.50;;;;;;6259582;23;20386;-80
2023/05/24 09:32:30;;;;;;;7.43;3.05;;;16.40;79.60;;;;;;6231174;23;20071;-81
2023/05/24 09:34:56;;;;;;;6.75;2.60;;;16.40;79.60;;;;;;6232119;23;20004;-80
2023/05/24 09:37:26;;;;;;;7.03;2.47;;;16.40;79.60;;;;;;6230849;23;20395;-81
2023/05/24 09:39:52;;;;;;;7.75;2.50;;;16.40;79.70;;;;;;6230760;23;20000;-81
2023/05/24 09:42:26;;;;;;;7.25;2.65;;;16.40;79.70;;;;;;6229525;23;20440;-79
2023/05/24 09:45:07;;;;;;;8.27;2.55;;;16.40;79.50;;;;;;6219873;23;20008;-80
2023/05/24 09:47:34;;;;;;;6.85;2.50;;;16.40;79.60;;;;;;6221546;23;20000;-80
2023/05/24 09:50:01;;;;;;;6.32;2.53;;;16.40;79.70;;;;;;6224001;23;20468;-80
2023/05/24 09:52:26;;;;;;;7.45;2.70;;;16.40;79.70;;;;;;6228743;23;20152;-81
2023/05/24 09:54:52;;;;;;;8.75;3.03;;;16.30;79.60;;;;;;6229297;23;20001;-80
2023/05/24 09:57:21;;;;;;;6.38;2.63;;;16.40;79.60;;;;;;6228159;23;20004;-81
2023/05/24 09:59:50;;;;;;;7.75;2.67;;;16.30;79.80;;;;;;6228125;23;20338;-80
2023/05/24 10:02:19;;;;;;;8.73;2.70;;;16.30;79.90;;;;;;6226753;23;20068;-81
2023/05/24 10:04:45;;;;;;;8.02;2.40;;;16.30;79.90;;;;;;6222679;23;20075;-80
2023/05/24 10:07:11;;;;;;;8.18;2.80;;;16.30;79.90;;;;;;6222189;23;20004;-80
2023/05/24 10:09:37;;;;;;;7.07;2.72;;;16.40;79.90;;;;;;6226862;23;20328;-81
2023/05/24 10:12:05;;;;;;;6.78;2.75;;;16.30;80.00;;;;;;6226269;23;20015;-80
2023/05/24 10:14:34;;;;;;;7.55;2.53;;;16.40;79.90;;;;;;6225795;23;20453;-80
2023/05/24 10:17:01;;;;;;;7.47;2.53;;;16.40;79.80;;;;;;6225604;23;20104;-79
2023/05/24 10:19:26;;;;;;;7.10;2.63;;;16.40;79.60;;;;;;6219956;23;20011;-79
2023/05/24 10:21:55;;;;;;;5.97;2.58;;;16.40;79.60;;;;;;6224402;23;20020;-80
2023/05/24 10:24:24;;;;;;;7.32;2.58;;;16.40;79.60;;;;;;6253026;23;20004;-80
2023/05/24 10:26:52;;;;;;;6.55;2.70;;;16.40;79.50;;;;;;6251207;23;20405;-80
2023/05/24 10:29:34;;;;;;;6.53;2.50;;;16.40;79.50;;;;;;6252360;23;20437;-80
2023/05/24 10:32:02;;;;;;;7.35;2.60;;;16.50;79.50;;;;;;6224841;23;20008;-79
2023/05/24 10:34:29;;;;;;;7.00;2.38;;;16.50;79.50;;;;;;6252380;23;19996;-80
2023/05/24 10:36:56;;;;;;;7.60;2.33;;;16.50;79.50;;;;;;6223686;23;20083;-81
2023/05/24 10:39:23;;;;;;;8.55;2.70;;;16.50;79.50;;;;;;6224133;23;20011;-80
2023/05/24 10:41:49;;;;;;;7.10;2.55;;;16.40;79.50;;;;;;6223205;23;20008;-80
2023/05/24 10:44:18;;;;;;;6.10;2.45;;;16.40;79.60;;;;;;6224099;23;20062;-80
2023/05/24 10:47:07;;;;;;;8.02;2.55;;;16.40;79.70;;;;;;6224313;23;20027;-82
2023/05/24 10:49:33;;;;;;;5.53;2.42;;;16.40;79.70;;;;;;6223660;23;20357;-80
2023/05/24 10:52:07;;;;;;;6.35;2.78;;;16.40;79.80;;;;;;6222945;23;20000;-81
2023/05/24 10:54:32;;;;;;;7.05;2.40;;;16.40;79.90;;;;;;6222348;23;20001;-81
2023/05/24 10:57:03;;;;;;;7.82;3.00;;;16.40;79.90;;;;;;6220838;23;20000;-81
2023/05/24 10:59:36;;;;;;;7.72;2.70;;;16.30;79.90;;;;;;6219763;23;20004;-80
2023/05/24 11:02:13;;;;;;;9.10;3.15;;;16.30;79.90;;;;;;6219357;23;20434;-80
2023/05/24 11:04:45;;;;;;;6.93;2.33;;;16.30;79.90;;;;;;6219502;23;20012;-80
2023/05/24 11:07:13;;;;;;;;;;;16.30;79.90;;;;;;6220349;23;20549;-80
2023/05/24 11:09:45;;;;;;;5.75;2.25;;;16.30;79.90;;;;;;6219649;23;19974;-80
2023/05/24 11:12:17;;;;;;;;;;;16.30;79.90;;;;;;6219743;23;20349;-80
2023/05/24 11:14:52;;;;;;;5.68;2.40;;;16.30;79.80;;;;;;6219047;23;19938;-80
2023/05/24 11:17:20;;;;;;;6.30;2.40;;;16.30;79.80;;;;;;6220423;23;20375;-80
2023/05/24 11:19:54;;;;;;;7.40;2.75;;;16.40;79.80;;;;;;6220737;23;20004;-80
2023/05/24 11:22:22;;;;;;;7.15;2.45;;;16.30;79.70;;;;;;6218973;23;20349;-80
2023/05/24 11:24:48;;;;;;;9.52;3.15;;;16.40;79.70;;;;;;6219321;23;20004;-80
2023/05/24 11:27:14;;;;;;;8.20;2.50;;;16.30;79.60;;;;;;6219446;23;20011;-80
2023/05/24 11:29:44;;;;;;;8.23;2.65;;;16.40;79.70;;;;;;6219380;23;20032;-80
2023/05/24 11:32:15;;;;;;;7.65;2.80;;;16.40;79.70;;;;;;6219998;23;20454;-80
2023/05/24 11:34:43;;;;;;;6.05;2.50;;;16.40;79.70;;;;;;6220343;23;20000;-81
2023/05/24 11:37:09;;;;;;;7.53;2.60;;;16.40;79.70;;;;;;6218926;23;20327;-80
2023/05/24 11:39:36;;;;;;;7.25;2.60;;;16.30;79.70;;;;;;6219589;23;20000;-80
2023/05/24 11:42:08;;;;;;;9.75;2.60;;;16.40;79.70;;;;;;6219603;23;20047;-80
2023/05/24 11:44:36;;;;;;;7.47;2.80;;;16.40;79.70;;;;;;6219148;23;20019;-80
2023/05/24 11:47:05;;;;;;;6.93;2.75;;;16.40;79.80;;;;;;6219197;23;20089;-80
2023/05/24 11:49:30;;;;;;;6.45;2.63;;;16.40;79.70;;;;;;6218677;23;20008;-80
2023/05/24 11:51:57;;;;;;;7.03;2.63;;;16.30;79.70;;;;;;6218744;23;20015;-80
2023/05/24 11:54:23;;;;;;;8.15;2.90;;;16.40;79.70;;;;;;6219152;23;20000;-80
2023/05/24 11:56:50;;;;;;;7.05;2.47;;;16.40;79.70;;;;;;6220306;23;20138;-80
2023/05/24 11:59:21;;;;;;;7.82;2.55;;;16.40;79.70;;;;;;6233786;23;20024;-81
2023/05/24 12:01:46;;;;;;;6.90;2.87;;;16.40;79.70;;;;;;6254310;23;20330;-80
2023/05/24 12:04:12;;;;;;;7.40;2.55;;;16.40;79.60;;;;;;6221014;23;19996;-79
2023/05/24 12:06:42;;;;;;;8.32;2.85;;;16.40;79.50;;;;;;6260254;23;20000;-81
2023/05/24 12:09:09;;;;;;;7.95;2.75;;;16.50;79.40;;;;;;6259995;23;20067;-81
2023/05/24 12:11:43;;;;;;;6.30;2.70;;;16.50;79.40;;;;;;6231868;23;20063;-80
2023/05/24 12:14:13;;;;;;;7.07;2.75;;;16.50;79.40;;;;;;6231880;23;20036;-80
2023/05/24 12:16:41;;;;;;;7.07;2.63;;;16.50;79.40;;;;;;6231043;23;20092;-80
2023/05/24 12:19:06;;;;;;;6.97;2.80;;;16.50;79.40;;;;;;6224998;23;20001;-80
2023/05/24 12:21:33;;;;;;;7.32;2.72;;;16.50;79.40;;;;;;6247034;23;19996;-80
2023/05/24 12:24:08;;;;;;;8.00;3.08;;;16.50;79.50;;;;;;6258156;23;20062;-80
2023/05/24 12:26:39;;;;;;;5.50;2.40;;;16.50;79.50;;;;;;6229828;23;20019;-80
2023/05/24 12:29:05;;;;;;;6.57;2.50;;;16.40;79.60;;;;;;6229909;23;20004;-80
2023/05/24 12:31:31;;;;;;;6.63;2.67;;;16.40;79.70;;;;;;6255788;23;20012;-80
2023/05/24 12:33:56;;;;;;;6.45;2.47;;;16.40;79.70;;;;;;6219030;23;20077;-79
2023/05/24 12:36:22;;;;;;;7.15;3.17;;;16.40;79.90;;;;;;6224076;23;20091;-80
2023/05/24 12:38:48;;;;;;;9.00;2.97;;;16.40;79.90;;;;;;6255782;23;19996;-79
2023/05/24 12:41:14;;;;;;;6.10;2.80;;;16.30;79.90;;;;;;6244060;23;20007;-79
2023/05/24 12:43:43;;;;;;;7.30;2.88;;;16.30;80.00;;;;;;6222212;23;20079;-80
2023/05/24 12:46:08;;;;;;;6.78;2.83;;;16.30;80.00;;;;;;6221422;23;20106;-80
2023/05/24 12:48:34;;;;;;;7.13;2.72;;;16.30;79.90;;;;;;6227322;23;20008;-80